sensor_id;sensor_type;location;lat;lon;timestamp;temperature;humidity
48212;DHT22;34000;48.772;9.162;2023-02-13T00:02:13;8.30;52.80
48212;DHT22;34000;48.772;9.162;2023-02-13T00:04:39;8.40;52.80
48212;DHT22;34000;48.772;9.162;2023-02-13T00:07:07;8.40;52.90
48212;DHT22;34000;48.772;9.162;2023-02-13T00:09:32;8.40;52.90
48212;DHT22;34000;48.772;9.162;2023-02-13T00:11:58;8.30;52.80
48212;DHT22;34000;48.772;9.162;2023-02-13T00:14:23;8.40;52.80
48212;DHT22;34000;48.772;9.162;2023-02-13T00:16:49;8.30;52.70
48212;DHT22;34000;48.772;9.162;2023-02-13T00:19:15;8.30;52.80
48212;DHT22;34000;48.772;9.162;2023-02-13T00:21:40;8.30;52.80
48212;DHT22;34000;48.772;9.162;2023-02-13T00:24:06;8.30;52.80
48212;DHT22;34000;48.772;9.162;2023-02-13T00:26:31;8.30;52.80
48212;DHT22;34000;48.772;9.162;2023-02-13T00:28:57;8.20;52.70
48212;DHT22;34000;48.772;9.162;2023-02-13T00:31:22;8.20;52.70
48212;DHT22;34000;48.772;9.162;2023-02-13T00:33:48;8.20;52.80
48212;DHT22;34000;48.772;9.162;2023-02-13T00:36:15;8.20;52.80
48212;DHT22;34000;48.772;9.162;2023-02-13T00:38:41;8.20;52.90
48212;DHT22;34000;48.772;9.162;2023-02-13T00:41:06;8.10;53.10
48212;DHT22;34000;48.772;9.162;2023-02-13T00:43:32;8.10;53.20
48212;DHT22;34000;48.772;9.162;2023-02-13T00:45:58;8.00;53.50
48212;DHT22;34000;48.772;9.162;2023-02-13T00:48:24;7.90;53.80
48212;DHT22;34000;48.772;9.162;2023-02-13T00:50:49;7.80;53.90
48212;DHT22;34000;48.772;9.162;2023-02-13T00:53:17;7.80;53.90
48212;DHT22;34000;48.772;9.162;2023-02-13T00:55:43;7.80;54.10
48212;DHT22;34000;48.772;9.162;2023-02-13T00:58:08;7.80;54.00
48212;DHT22;34000;48.772;9.162;2023-02-13T01:00:34;7.80;54.00
48212;DHT22;34000;48.772;9.162;2023-02-13T01:02:59;7.80;53.90
48212;DHT22;34000;48.772;9.162;2023-02-13T01:05:25;7.80;53.80
48212;DHT22;34000;48.772;9.162;2023-02-13T01:07:52;7.70;53.80
48212;DHT22;34000;48.772;9.162;2023-02-13T01:10:17;7.80;53.90
48212;DHT22;34000;48.772;9.162;2023-02-13T01:12:43;7.80;53.80
48212;DHT22;34000;48.772;9.162;2023-02-13T01:15:08;7.80;53.70
48212;DHT22;34000;48.772;9.162;2023-02-13T01:17:34;7.70;53.70
48212;DHT22;34000;48.772;9.162;2023-02-13T01:19:59;7.70;53.90
48212;DHT22;34000;48.772;9.162;2023-02-13T01:22:25;7.80;53.90
48212;DHT22;34000;48.772;9.162;2023-02-13T01:24:50;7.70;53.90
48212;DHT22;34000;48.772;9.162;2023-02-13T01:27:16;7.70;53.90
48212;DHT22;34000;48.772;9.162;2023-02-13T01:29:41;7.70;53.80
48212;DHT22;34000;48.772;9.162;2023-02-13T01:32:07;7.70;53.70
48212;DHT22;34000;48.772;9.162;2023-02-13T01:34:32;7.70;53.70
48212;DHT22;34000;48.772;9.162;2023-02-13T01:36:58;7.70;53.70
48212;DHT22;34000;48.772;9.162;2023-02-13T01:39:23;7.60;53.80
48212;DHT22;34000;48.772;9.162;2023-02-13T01:41:49;7.60;54.00
48212;DHT22;34000;48.772;9.162;2023-02-13T01:44:57;7.50;54.10
48212;DHT22;34000;48.772;9.162;2023-02-13T01:47:03;7.50;54.40
48212;DHT22;34000;48.772;9.162;2023-02-13T01:49:28;7.40;54.50
48212;DHT22;34000;48.772;9.162;2023-02-13T01:51:54;7.40;54.60
48212;DHT22;34000;48.772;9.162;2023-02-13T01:54:22;7.30;54.60
48212;DHT22;34000;48.772;9.162;2023-02-13T01:56:52;7.30;54.60
48212;DHT22;34000;48.772;9.162;2023-02-13T01:59:19;7.30;54.70
48212;DHT22;34000;48.772;9.162;2023-02-13T02:01:45;7.30;54.60
48212;DHT22;34000;48.772;9.162;2023-02-13T02:06:37;7.40;54.30
48212;DHT22;34000;48.772;9.162;2023-02-13T02:09:14;7.40;54.30
48212;DHT22;34000;48.772;9.162;2023-02-13T02:11:44;7.50;54.30
48212;DHT22;34000;48.772;9.162;2023-02-13T02:14:12;7.40;54.30
48212;DHT22;34000;48.772;9.162;2023-02-13T02:16:38;7.50;54.30
48212;DHT22;34000;48.772;9.162;2023-02-13T02:19:04;7.50;54.20
48212;DHT22;34000;48.772;9.162;2023-02-13T02:26:58;7.40;54.30
48212;DHT22;34000;48.772;9.162;2023-02-13T02:55:44;7.00;55.30
48212;DHT22;34000;48.772;9.162;2023-02-13T03:01:15;6.70;56.30
48212;DHT22;34000;48.772;9.162;2023-02-13T03:04:01;6.70;56.70
48212;DHT22;34000;48.772;9.162;2023-02-13T03:06:47;6.60;56.60
48212;DHT22;34000;48.772;9.162;2023-02-13T03:09:15;6.60;56.60
48212;DHT22;34000;48.772;9.162;2023-02-13T03:12:01;6.60;56.50
48212;DHT22;34000;48.772;9.162;2023-02-13T03:14:45;6.60;56.40
48212;DHT22;34000;48.772;9.162;2023-02-13T03:17:12;6.70;56.40
48212;DHT22;34000;48.772;9.162;2023-02-13T03:22:44;6.60;56.10
48212;DHT22;34000;48.772;9.162;2023-02-13T03:27:54;6.70;56.00
48212;DHT22;34000;48.772;9.162;2023-02-13T03:33:23;6.90;55.80
48212;DHT22;34000;48.772;9.162;2023-02-13T03:36:00;6.90;55.60
48212;DHT22;34000;48.772;9.162;2023-02-13T03:38:54;6.90;55.60
48212;DHT22;34000;48.772;9.162;2023-02-13T03:41:24;6.80;55.70
48212;DHT22;34000;48.772;9.162;2023-02-13T03:46:25;6.70;55.90
48212;DHT22;34000;48.772;9.162;2023-02-13T03:48:53;6.70;56.00
48212;DHT22;34000;48.772;9.162;2023-02-13T03:54:26;6.70;55.90
48212;DHT22;34000;48.772;9.162;2023-02-13T03:57:14;6.80;55.90
48212;DHT22;34000;48.772;9.162;2023-02-13T04:00:00;6.70;55.90
48212;DHT22;34000;48.772;9.162;2023-02-13T04:02:27;6.70;56.00
48212;DHT22;34000;48.772;9.162;2023-02-13T04:04:58;6.70;56.10
48212;DHT22;34000;48.772;9.162;2023-02-13T04:07:28;6.70;56.00
48212;DHT22;34000;48.772;9.162;2023-02-13T04:09:54;6.60;56.00
48212;DHT22;34000;48.772;9.162;2023-02-13T04:12:20;6.70;56.00
48212;DHT22;34000;48.772;9.162;2023-02-13T04:17:44;6.80;55.90
48212;DHT22;34000;48.772;9.162;2023-02-13T04:20:11;6.80;55.80
48212;DHT22;34000;48.772;9.162;2023-02-13T04:22:43;6.80;55.70
48212;DHT22;34000;48.772;9.162;2023-02-13T04:25:09;6.90;55.70
48212;DHT22;34000;48.772;9.162;2023-02-13T04:27:35;6.90;55.70
48212;DHT22;34000;48.772;9.162;2023-02-13T04:30:00;7.00;55.70
48212;DHT22;34000;48.772;9.162;2023-02-13T04:32:26;7.00;55.60
48212;DHT22;34000;48.772;9.162;2023-02-13T04:34:51;7.00;55.60
48212;DHT22;34000;48.772;9.162;2023-02-13T04:37:17;7.00;55.50
48212;DHT22;34000;48.772;9.162;2023-02-13T04:39:42;7.00;55.50
48212;DHT22;34000;48.772;9.162;2023-02-13T04:42:08;7.00;55.50
48212;DHT22;34000;48.772;9.162;2023-02-13T04:44:33;7.00;55.40
48212;DHT22;34000;48.772;9.162;2023-02-13T04:46:59;7.00;55.40
48212;DHT22;34000;48.772;9.162;2023-02-13T04:49:24;6.90;55.50
48212;DHT22;34000;48.772;9.162;2023-02-13T04:51:50;6.90;55.40
48212;DHT22;34000;48.772;9.162;2023-02-13T04:54:15;6.80;55.90
48212;DHT22;34000;48.772;9.162;2023-02-13T04:56:40;6.80;55.40
48212;DHT22;34000;48.772;9.162;2023-02-13T04:59:06;6.80;55.50
48212;DHT22;34000;48.772;9.162;2023-02-13T05:01:31;6.70;55.50
48212;DHT22;34000;48.772;9.162;2023-02-13T05:03:57;6.70;55.50
48212;DHT22;34000;48.772;9.162;2023-02-13T05:06:22;6.80;55.60
48212;DHT22;34000;48.772;9.162;2023-02-13T05:08:48;6.70;55.50
48212;DHT22;34000;48.772;9.162;2023-02-13T05:11:13;6.70;55.60
48212;DHT22;34000;48.772;9.162;2023-02-13T05:13:39;6.70;55.50
48212;DHT22;34000;48.772;9.162;2023-02-13T05:16:04;6.70;55.50
48212;DHT22;34000;48.772;9.162;2023-02-13T05:18:30;6.70;55.50
48212;DHT22;34000;48.772;9.162;2023-02-13T05:20:55;6.70;55.50
48212;DHT22;34000;48.772;9.162;2023-02-13T05:23:39;6.70;55.50
48212;DHT22;34000;48.772;9.162;2023-02-13T05:26:05;6.70;55.60
48212;DHT22;34000;48.772;9.162;2023-02-13T05:28:30;6.70;55.60
48212;DHT22;34000;48.772;9.162;2023-02-13T05:31:14;6.70;55.60
48212;DHT22;34000;48.772;9.162;2023-02-13T05:33:40;6.70;55.60
48212;DHT22;34000;48.772;9.162;2023-02-13T05:36:05;6.70;55.60
48212;DHT22;34000;48.772;9.162;2023-02-13T05:38:31;6.60;55.50
48212;DHT22;34000;48.772;9.162;2023-02-13T05:40:59;6.60;55.50
48212;DHT22;34000;48.772;9.162;2023-02-13T05:43:25;6.60;55.50
48212;DHT22;34000;48.772;9.162;2023-02-13T05:45:51;6.60;55.60
48212;DHT22;34000;48.772;9.162;2023-02-13T05:48:24;6.50;55.50
48212;DHT22;34000;48.772;9.162;2023-02-13T05:50:50;6.60;55.60
48212;DHT22;34000;48.772;9.162;2023-02-13T05:53:15;6.60;55.60
48212;DHT22;34000;48.772;9.162;2023-02-13T05:55:41;6.60;55.60
48212;DHT22;34000;48.772;9.162;2023-02-13T05:58:06;6.60;55.50
48212;DHT22;34000;48.772;9.162;2023-02-13T06:00:33;6.60;55.50
48212;DHT22;34000;48.772;9.162;2023-02-13T06:02:59;6.60;55.50
48212;DHT22;34000;48.772;9.162;2023-02-13T06:05:24;6.50;55.50
48212;DHT22;34000;48.772;9.162;2023-02-13T06:07:50;6.50;55.50
48212;DHT22;34000;48.772;9.162;2023-02-13T06:10:15;6.50;55.70
48212;DHT22;34000;48.772;9.162;2023-02-13T06:12:41;6.40;55.80
48212;DHT22;34000;48.772;9.162;2023-02-13T06:15:07;6.30;55.90
48212;DHT22;34000;48.772;9.162;2023-02-13T06:17:32;6.20;55.90
48212;DHT22;34000;48.772;9.162;2023-02-13T06:19:58;6.30;56.00
48212;DHT22;34000;48.772;9.162;2023-02-13T06:22:23;6.20;56.00
48212;DHT22;34000;48.772;9.162;2023-02-13T06:24:49;6.20;56.10
48212;DHT22;34000;48.772;9.162;2023-02-13T06:27:14;6.20;56.10
48212;DHT22;34000;48.772;9.162;2023-02-13T06:29:40;6.10;56.20
48212;DHT22;34000;48.772;9.162;2023-02-13T06:32:05;6.10;56.20
48212;DHT22;34000;48.772;9.162;2023-02-13T06:34:31;6.00;56.30
48212;DHT22;34000;48.772;9.162;2023-02-13T06:36:56;6.00;57.00
48212;DHT22;34000;48.772;9.162;2023-02-13T06:39:22;6.00;56.60
48212;DHT22;34000;48.772;9.162;2023-02-13T06:41:47;6.00;56.70
48212;DHT22;34000;48.772;9.162;2023-02-13T06:44:12;5.80;56.70
48212;DHT22;34000;48.772;9.162;2023-02-13T06:46:38;5.90;56.90
48212;DHT22;34000;48.772;9.162;2023-02-13T06:49:03;5.80;57.00
48212;DHT22;34000;48.772;9.162;2023-02-13T06:51:29;5.80;57.00
48212;DHT22;34000;48.772;9.162;2023-02-13T06:53:54;5.90;56.90
48212;DHT22;34000;48.772;9.162;2023-02-13T06:56:20;6.00;56.80
48212;DHT22;34000;48.772;9.162;2023-02-13T06:58:45;6.10;56.70
48212;DHT22;34000;48.772;9.162;2023-02-13T07:01:11;6.20;56.60
48212;DHT22;34000;48.772;9.162;2023-02-13T07:03:36;6.20;56.40
48212;DHT22;34000;48.772;9.162;2023-02-13T07:06:02;6.50;57.00
48212;DHT22;34000;48.772;9.162;2023-02-13T07:08:27;6.40;56.30
48212;DHT22;34000;48.772;9.162;2023-02-13T07:10:53;6.40;56.10
48212;DHT22;34000;48.772;9.162;2023-02-13T07:13:19;6.50;56.00
48212;DHT22;34000;48.772;9.162;2023-02-13T07:15:44;6.50;56.00
48212;DHT22;34000;48.772;9.162;2023-02-13T07:18:10;6.60;55.90
48212;DHT22;34000;48.772;9.162;2023-02-13T07:20:35;6.60;55.90
48212;DHT22;34000;48.772;9.162;2023-02-13T07:23:01;6.70;55.90
48212;DHT22;34000;48.772;9.162;2023-02-13T07:25:27;6.70;55.80
48212;DHT22;34000;48.772;9.162;2023-02-13T07:27:53;6.80;56.40
48212;DHT22;34000;48.772;9.162;2023-02-13T07:30:19;6.90;55.70
48212;DHT22;34000;48.772;9.162;2023-02-13T07:32:44;6.90;55.60
48212;DHT22;34000;48.772;9.162;2023-02-13T07:35:09;7.00;55.50
48212;DHT22;34000;48.772;9.162;2023-02-13T07:37:35;7.10;55.50
48212;DHT22;34000;48.772;9.162;2023-02-13T07:40:00;7.10;55.50
48212;DHT22;34000;48.772;9.162;2023-02-13T07:42:29;7.10;55.50
48212;DHT22;34000;48.772;9.162;2023-02-13T07:44:56;7.10;55.40
48212;DHT22;34000;48.772;9.162;2023-02-13T07:47:21;7.10;55.40
48212;DHT22;34000;48.772;9.162;2023-02-13T07:49:47;7.10;55.50
48212;DHT22;34000;48.772;9.162;2023-02-13T07:52:12;7.10;55.50
48212;DHT22;34000;48.772;9.162;2023-02-13T07:54:38;7.40;55.70
48212;DHT22;34000;48.772;9.162;2023-02-13T07:57:14;7.20;55.50
48212;DHT22;34000;48.772;9.162;2023-02-13T07:59:40;7.30;55.40
48212;DHT22;34000;48.772;9.162;2023-02-13T08:02:07;7.30;55.30
48212;DHT22;34000;48.772;9.162;2023-02-13T08:04:34;7.40;55.30
48212;DHT22;34000;48.772;9.162;2023-02-13T08:07:00;7.30;55.30
48212;DHT22;34000;48.772;9.162;2023-02-13T08:09:25;7.30;55.40
48212;DHT22;34000;48.772;9.162;2023-02-13T08:12:09;7.30;55.70
48212;DHT22;34000;48.772;9.162;2023-02-13T08:14:35;7.20;55.80
48212;DHT22;34000;48.772;9.162;2023-02-13T08:17:01;7.20;56.00
48212;DHT22;34000;48.772;9.162;2023-02-13T08:19:26;7.30;56.30
48212;DHT22;34000;48.772;9.162;2023-02-13T08:21:52;7.20;56.30
48212;DHT22;34000;48.772;9.162;2023-02-13T08:24:18;7.30;56.30
48212;DHT22;34000;48.772;9.162;2023-02-13T08:26:43;7.30;56.30
48212;DHT22;34000;48.772;9.162;2023-02-13T08:29:09;7.40;56.50
48212;DHT22;34000;48.772;9.162;2023-02-13T08:31:35;7.40;56.40
48212;DHT22;34000;48.772;9.162;2023-02-13T08:34:01;7.50;56.90
48212;DHT22;34000;48.772;9.162;2023-02-13T08:36:26;7.60;56.30
48212;DHT22;34000;48.772;9.162;2023-02-13T08:38:52;7.70;56.20
48212;DHT22;34000;48.772;9.162;2023-02-13T08:41:17;7.80;56.30
48212;DHT22;34000;48.772;9.162;2023-02-13T08:43:45;7.90;56.30
48212;DHT22;34000;48.772;9.162;2023-02-13T08:46:10;8.00;56.20
48212;DHT22;34000;48.772;9.162;2023-02-13T08:48:36;8.20;56.00
48212;DHT22;34000;48.772;9.162;2023-02-13T08:51:08;8.40;55.70
48212;DHT22;34000;48.772;9.162;2023-02-13T08:53:34;8.60;55.50
48212;DHT22;34000;48.772;9.162;2023-02-13T08:56:00;8.70;55.20
48212;DHT22;34000;48.772;9.162;2023-02-13T08:58:25;8.90;55.00
48212;DHT22;34000;48.772;9.162;2023-02-13T09:00:51;9.10;54.90
48212;DHT22;34000;48.772;9.162;2023-02-13T09:05:42;10.20;54.00
48212;DHT22;34000;48.772;9.162;2023-02-13T09:08:07;10.80;54.80
48212;DHT22;34000;48.772;9.162;2023-02-13T09:10:36;11.10;52.90
48212;DHT22;34000;48.772;9.162;2023-02-13T09:13:02;11.00;52.80
48212;DHT22;34000;48.772;9.162;2023-02-13T09:15:27;11.70;52.70
48212;DHT22;34000;48.772;9.162;2023-02-13T09:17:53;13.20;51.60
48212;DHT22;34000;48.772;9.162;2023-02-13T09:20:18;14.90;49.30
48212;DHT22;34000;48.772;9.162;2023-02-13T09:22:44;16.30;46.70
48212;DHT22;34000;48.772;9.162;2023-02-13T09:25:09;17.60;44.60
48212;DHT22;34000;48.772;9.162;2023-02-13T09:27:35;18.60;43.10
48212;DHT22;34000;48.772;9.162;2023-02-13T09:30:04;19.50;41.90
48212;DHT22;34000;48.772;9.162;2023-02-13T09:32:29;20.50;41.10
48212;DHT22;34000;48.772;9.162;2023-02-13T09:34:55;21.20;39.70
48212;DHT22;34000;48.772;9.162;2023-02-13T09:37:20;21.80;39.20
48212;DHT22;34000;48.772;9.162;2023-02-13T09:39:47;22.10;38.00
48212;DHT22;34000;48.772;9.162;2023-02-13T09:42:23;22.40;37.80
48212;DHT22;34000;48.772;9.162;2023-02-13T09:44:50;22.50;37.00
48212;DHT22;34000;48.772;9.162;2023-02-13T09:49:52;22.60;36.50
48212;DHT22;34000;48.772;9.162;2023-02-13T09:52:18;22.80;36.20
48212;DHT22;34000;48.772;9.162;2023-02-13T09:54:44;22.90;35.20
48212;DHT22;34000;48.772;9.162;2023-02-13T10:10:55;24.60;33.90
48212;DHT22;34000;48.772;9.162;2023-02-13T10:13:27;24.80;33.70
48212;DHT22;34000;48.772;9.162;2023-02-13T10:16:08;25.00;33.90
48212;DHT22;34000;48.772;9.162;2023-02-13T10:18:58;25.50;33.60
48212;DHT22;34000;48.772;9.162;2023-02-13T10:21:20;25.90;33.80
48212;DHT22;34000;48.772;9.162;2023-02-13T10:23:49;26.30;33.30
48212;DHT22;34000;48.772;9.162;2023-02-13T10:26:18;26.70;32.80
48212;DHT22;34000;48.772;9.162;2023-02-13T10:28:45;26.90;32.70
48212;DHT22;34000;48.772;9.162;2023-02-13T10:31:33;27.00;32.60
48212;DHT22;34000;48.772;9.162;2023-02-13T10:33:59;27.20;32.60
48212;DHT22;34000;48.772;9.162;2023-02-13T10:36:27;27.50;32.80
48212;DHT22;34000;48.772;9.162;2023-02-13T10:47:02;28.40;31.50
48212;DHT22;34000;48.772;9.162;2023-02-13T10:49:26;28.80;31.80
48212;DHT22;34000;48.772;9.162;2023-02-13T10:52:43;28.80;30.80
48212;DHT22;34000;48.772;9.162;2023-02-13T10:55:02;28.60;30.30
48212;DHT22;34000;48.772;9.162;2023-02-13T11:00:15;28.60;29.90
48212;DHT22;34000;48.772;9.162;2023-02-13T11:02:44;28.40;30.00
48212;DHT22;34000;48.772;9.162;2023-02-13T11:07:35;27.80;29.30
48212;DHT22;34000;48.772;9.162;2023-02-13T11:10:02;27.70;29.40
48212;DHT22;34000;48.772;9.162;2023-02-13T11:12:30;27.50;29.10
48212;DHT22;34000;48.772;9.162;2023-02-13T11:14:58;27.60;29.30
48212;DHT22;34000;48.772;9.162;2023-02-13T11:17:24;27.80;29.20
48212;DHT22;34000;48.772;9.162;2023-02-13T11:19:57;28.10;29.10
48212;DHT22;34000;48.772;9.162;2023-02-13T11:22:34;28.40;28.40
48212;DHT22;34000;48.772;9.162;2023-02-13T11:25:05;28.50;28.40
48212;DHT22;34000;48.772;9.162;2023-02-13T11:27:32;28.60;28.30
48212;DHT22;34000;48.772;9.162;2023-02-13T11:32:44;28.50;27.90
48212;DHT22;34000;48.772;9.162;2023-02-13T11:35:27;28.30;27.80
48212;DHT22;34000;48.772;9.162;2023-02-13T11:38:10;28.50;28.00
48212;DHT22;34000;48.772;9.162;2023-02-13T11:40:35;29.20;28.30
48212;DHT22;34000;48.772;9.162;2023-02-13T11:43:04;29.80;27.50
48212;DHT22;34000;48.772;9.162;2023-02-13T11:45:30;29.70;26.80
48212;DHT22;34000;48.772;9.162;2023-02-13T11:47:56;29.40;26.40
48212;DHT22;34000;48.772;9.162;2023-02-13T11:50:30;29.10;26.70
48212;DHT22;34000;48.772;9.162;2023-02-13T11:52:57;29.20;26.90
48212;DHT22;34000;48.772;9.162;2023-02-13T11:57:57;29.50;26.50
48212;DHT22;34000;48.772;9.162;2023-02-13T12:00:27;28.80;26.50
48212;DHT22;34000;48.772;9.162;2023-02-13T12:02:55;28.10;26.90
48212;DHT22;34000;48.772;9.162;2023-02-13T12:05:27;27.70;27.40
48212;DHT22;34000;48.772;9.162;2023-02-13T12:07:54;27.20;27.30
48212;DHT22;34000;48.772;9.162;2023-02-13T12:10:27;26.80;27.70
48212;DHT22;34000;48.772;9.162;2023-02-13T12:13:13;26.50;27.90
48212;DHT22;34000;48.772;9.162;2023-02-13T12:15:39;26.20;28.00
48212;DHT22;34000;48.772;9.162;2023-02-13T12:18:20;25.90;28.20
48212;DHT22;34000;48.772;9.162;2023-02-13T12:25:52;25.80;28.60
48212;DHT22;34000;48.772;9.162;2023-02-13T12:38:37;24.60;29.00
48212;DHT22;34000;48.772;9.162;2023-02-13T12:48:46;24.10;29.20
48212;DHT22;34000;48.772;9.162;2023-02-13T12:58:55;23.60;29.70
48212;DHT22;34000;48.772;9.162;2023-02-13T13:01:35;23.40;29.70
48212;DHT22;34000;48.772;9.162;2023-02-13T13:09:20;22.70;30.00
48212;DHT22;34000;48.772;9.162;2023-02-13T13:11:54;22.50;30.10
48212;DHT22;34000;48.772;9.162;2023-02-13T13:14:31;22.40;30.20
48212;DHT22;34000;48.772;9.162;2023-02-13T13:22:18;22.00;30.40
48212;DHT22;34000;48.772;9.162;2023-02-13T13:28:13;21.90;30.60
48212;DHT22;34000;48.772;9.162;2023-02-13T13:30:12;21.70;30.70
48212;DHT22;34000;48.772;9.162;2023-02-13T13:32:40;21.50;30.80
48212;DHT22;34000;48.772;9.162;2023-02-13T13:35:11;21.30;30.90
48212;DHT22;34000;48.772;9.162;2023-02-13T13:37:39;21.20;31.20
48212;DHT22;34000;48.772;9.162;2023-02-13T13:42:54;20.80;31.40
48212;DHT22;34000;48.772;9.162;2023-02-13T13:50:21;20.60;31.60
48212;DHT22;34000;48.772;9.162;2023-02-13T13:58:45;20.20;31.80
48212;DHT22;34000;48.772;9.162;2023-02-13T14:03:38;20.00;31.90
48212;DHT22;34000;48.772;9.162;2023-02-13T14:06:06;19.90;31.90
48212;DHT22;34000;48.772;9.162;2023-02-13T14:11:03;19.50;32.00
48212;DHT22;34000;48.772;9.162;2023-02-13T14:13:36;19.40;32.00
48212;DHT22;34000;48.772;9.162;2023-02-13T14:16:03;19.30;32.10
48212;DHT22;34000;48.772;9.162;2023-02-13T14:18:28;19.10;32.20
48212;DHT22;34000;48.772;9.162;2023-02-13T14:21:03;19.00;32.20
48212;DHT22;34000;48.772;9.162;2023-02-13T14:23:31;19.00;32.30
48212;DHT22;34000;48.772;9.162;2023-02-13T14:26:10;18.80;32.40
48212;DHT22;34000;48.772;9.162;2023-02-13T14:28:36;18.70;32.50
48212;DHT22;34000;48.772;9.162;2023-02-13T14:34:22;18.50;32.60
48212;DHT22;34000;48.772;9.162;2023-02-13T14:36:42;18.30;32.70
48212;DHT22;34000;48.772;9.162;2023-02-13T14:44:07;18.10;33.00
48212;DHT22;34000;48.772;9.162;2023-02-13T14:46:39;17.90;33.10
48212;DHT22;34000;48.772;9.162;2023-02-13T14:51:50;17.60;33.40
48212;DHT22;34000;48.772;9.162;2023-02-13T14:54:18;17.50;33.50
48212;DHT22;34000;48.772;9.162;2023-02-13T14:56:48;17.50;33.50
48212;DHT22;34000;48.772;9.162;2023-02-13T14:59:15;17.50;33.60
48212;DHT22;34000;48.772;9.162;2023-02-13T15:01:52;17.40;33.60
48212;DHT22;34000;48.772;9.162;2023-02-13T15:04:21;17.40;33.70
48212;DHT22;34000;48.772;9.162;2023-02-13T15:06:48;17.30;33.80
48212;DHT22;34000;48.772;9.162;2023-02-13T15:09:23;17.20;33.80
48212;DHT22;34000;48.772;9.162;2023-02-13T15:16:41;16.80;34.30
48212;DHT22;34000;48.772;9.162;2023-02-13T15:19:11;16.60;34.40
48212;DHT22;34000;48.772;9.162;2023-02-13T15:21:45;16.40;34.60
48212;DHT22;34000;48.772;9.162;2023-02-13T15:24:12;16.40;34.90
48212;DHT22;34000;48.772;9.162;2023-02-13T15:29:11;16.20;34.50
48212;DHT22;34000;48.772;9.162;2023-02-13T15:31:37;16.00;35.10
48212;DHT22;34000;48.772;9.162;2023-02-13T15:34:03;15.90;35.20
48212;DHT22;34000;48.772;9.162;2023-02-13T15:36:38;15.90;35.30
48212;DHT22;34000;48.772;9.162;2023-02-13T15:39:04;15.80;35.40
48212;DHT22;34000;48.772;9.162;2023-02-13T15:41:33;15.80;35.40
48212;DHT22;34000;48.772;9.162;2023-02-13T15:44:00;15.70;35.40
48212;DHT22;34000;48.772;9.162;2023-02-13T15:46:35;15.60;35.70
48212;DHT22;34000;48.772;9.162;2023-02-13T15:49:12;15.50;35.80
48212;DHT22;34000;48.772;9.162;2023-02-13T15:51:39;15.40;36.00
48212;DHT22;34000;48.772;9.162;2023-02-13T15:54:26;15.30;36.20
48212;DHT22;34000;48.772;9.162;2023-02-13T15:56:50;15.10;36.60
48212;DHT22;34000;48.772;9.162;2023-02-13T16:04:09;14.80;36.80
48212;DHT22;34000;48.772;9.162;2023-02-13T16:06:36;14.60;37.50
48212;DHT22;34000;48.772;9.162;2023-02-13T16:09:02;14.40;37.80
48212;DHT22;34000;48.772;9.162;2023-02-13T16:11:28;14.40;38.00
48212;DHT22;34000;48.772;9.162;2023-02-13T16:16:20;14.20;37.50
48212;DHT22;34000;48.772;9.162;2023-02-13T16:18:48;14.10;38.20
48212;DHT22;34000;48.772;9.162;2023-02-13T16:21:14;14.00;38.30
48212;DHT22;34000;48.772;9.162;2023-02-13T16:23:39;13.90;38.40
48212;DHT22;34000;48.772;9.162;2023-02-13T16:26:09;13.90;38.50
48212;DHT22;34000;48.772;9.162;2023-02-13T16:28:37;13.80;38.60
48212;DHT22;34000;48.772;9.162;2023-02-13T16:31:03;13.70;38.80
48212;DHT22;34000;48.772;9.162;2023-02-13T16:33:32;13.70;38.90
48212;DHT22;34000;48.772;9.162;2023-02-13T16:35:59;13.70;39.00
48212;DHT22;34000;48.772;9.162;2023-02-13T16:40:57;13.50;39.00
48212;DHT22;34000;48.772;9.162;2023-02-13T16:51:13;13.30;39.20
48212;DHT22;34000;48.772;9.162;2023-02-13T16:53:38;13.30;39.40
48212;DHT22;34000;48.772;9.162;2023-02-13T16:56:05;13.30;39.40
48212;DHT22;34000;48.772;9.162;2023-02-13T16:58:31;13.20;39.50
48212;DHT22;34000;48.772;9.162;2023-02-13T17:00:57;13.10;39.70
48212;DHT22;34000;48.772;9.162;2023-02-13T17:05:48;13.00;39.60
48212;DHT22;34000;48.772;9.162;2023-02-13T17:08:14;12.90;40.10
48212;DHT22;34000;48.772;9.162;2023-02-13T17:10:39;12.90;40.10
48212;DHT22;34000;48.772;9.162;2023-02-13T17:15:40;12.90;40.20
48212;DHT22;34000;48.772;9.162;2023-02-13T17:18:06;12.80;40.10
48212;DHT22;34000;48.772;9.162;2023-02-13T17:20:32;12.70;40.30
48212;DHT22;34000;48.772;9.162;2023-02-13T17:23:03;12.60;40.40
48212;DHT22;34000;48.772;9.162;2023-02-13T17:25:31;12.60;40.50
48212;DHT22;34000;48.772;9.162;2023-02-13T17:27:58;12.60;40.60
48212;DHT22;34000;48.772;9.162;2023-02-13T17:30:27;12.50;40.90
48212;DHT22;34000;48.772;9.162;2023-02-13T17:33:01;12.40;41.00
48212;DHT22;34000;48.772;9.162;2023-02-13T17:35:27;12.30;41.10
48212;DHT22;34000;48.772;9.162;2023-02-13T17:40:20;12.20;41.00
48212;DHT22;34000;48.772;9.162;2023-02-13T17:42:46;12.10;41.90
48212;DHT22;34000;48.772;9.162;2023-02-13T17:45:15;12.00;41.80
48212;DHT22;34000;48.772;9.162;2023-02-13T17:47:41;11.90;42.00
48212;DHT22;34000;48.772;9.162;2023-02-13T17:50:06;11.90;42.00
48212;DHT22;34000;48.772;9.162;2023-02-13T17:52:32;11.90;42.00
48212;DHT22;34000;48.772;9.162;2023-02-13T17:54:58;11.80;42.20
48212;DHT22;34000;48.772;9.162;2023-02-13T17:57:23;11.70;42.60
48212;DHT22;34000;48.772;9.162;2023-02-13T17:59:49;11.50;42.80
48212;DHT22;34000;48.772;9.162;2023-02-13T18:02:16;11.50;43.00
48212;DHT22;34000;48.772;9.162;2023-02-13T18:04:42;11.40;43.10
48212;DHT22;34000;48.772;9.162;2023-02-13T18:07:08;11.40;43.00
48212;DHT22;34000;48.772;9.162;2023-02-13T18:09:34;11.30;43.10
48212;DHT22;34000;48.772;9.162;2023-02-13T18:12:00;11.20;43.10
48212;DHT22;34000;48.772;9.162;2023-02-13T18:14:27;11.30;43.20
48212;DHT22;34000;48.772;9.162;2023-02-13T18:16:53;11.30;43.00
48212;DHT22;34000;48.772;9.162;2023-02-13T18:19:18;11.20;43.10
48212;DHT22;34000;48.772;9.162;2023-02-13T18:21:44;11.20;43.10
48212;DHT22;34000;48.772;9.162;2023-02-13T18:24:09;11.20;43.20
48212;DHT22;34000;48.772;9.162;2023-02-13T18:26:35;11.10;43.30
48212;DHT22;34000;48.772;9.162;2023-02-13T18:29:00;11.00;43.30
48212;DHT22;34000;48.772;9.162;2023-02-13T18:31:26;10.90;43.50
48212;DHT22;34000;48.772;9.162;2023-02-13T18:33:51;10.90;43.70
48212;DHT22;34000;48.772;9.162;2023-02-13T18:36:17;10.80;43.80
48212;DHT22;34000;48.772;9.162;2023-02-13T18:38:42;10.70;43.90
48212;DHT22;34000;48.772;9.162;2023-02-13T18:41:08;10.60;44.10
48212;DHT22;34000;48.772;9.162;2023-02-13T18:43:33;10.60;44.40
48212;DHT22;34000;48.772;9.162;2023-02-13T18:45:59;10.60;44.70
48212;DHT22;34000;48.772;9.162;2023-02-13T18:48:25;10.80;45.50
48212;DHT22;34000;48.772;9.162;2023-02-13T18:50:51;10.60;52.60
48212;DHT22;34000;48.772;9.162;2023-02-13T18:58:08;10.30;44.10
48212;DHT22;34000;48.772;9.162;2023-02-13T19:00:33;10.30;44.70
48212;DHT22;34000;48.772;9.162;2023-02-13T19:02:59;10.30;44.70
48212;DHT22;34000;48.772;9.162;2023-02-13T19:05:24;10.20;45.10